createdAt,value
2022-07-25T00:05:01.667Z,1006
2022-07-25T00:15:01.683Z,1006
2022-07-25T00:25:01.580Z,1006
2022-07-25T00:35:01.672Z,1005
2022-07-25T00:45:01.784Z,1006
2022-07-25T00:55:01.675Z,1006
2022-07-25T01:05:01.769Z,1006
2022-07-25T01:15:01.674Z,1006
2022-07-25T01:25:01.781Z,1005
2022-07-25T01:35:01.700Z,1006
2022-07-25T01:45:01.775Z,1006
2022-07-25T01:55:01.869Z,1006
2022-07-25T02:05:01.883Z,1005
2022-07-25T02:15:01.870Z,1005
2022-07-25T02:25:01.771Z,1006
2022-07-25T02:35:01.873Z,1005
2022-07-25T02:45:01.771Z,1006
2022-07-25T02:55:04.958Z,1006
2022-07-25T03:05:01.784Z,1006
2022-07-25T03:15:01.945Z,1006
2022-07-25T03:25:01.782Z,1005
2022-07-25T03:35:01.900Z,1005
2022-07-25T03:45:01.989Z,1005
2022-07-25T03:55:01.911Z,1005
2022-07-25T04:05:02.010Z,1005
2022-07-25T04:15:01.893Z,1005
2022-07-25T04:25:02.013Z,1005
2022-07-25T04:35:01.898Z,1005
2022-07-25T04:45:02.033Z,1005
2022-07-25T04:55:01.884Z,1006
2022-07-25T05:05:03.072Z,1006
2022-07-25T05:15:01.903Z,1006
2022-07-25T05:25:02.002Z,1006
2022-07-25T05:35:02.088Z,1006
2022-07-25T05:45:01.979Z,1006
2022-07-25T05:55:02.091Z,1006
2022-07-25T06:05:02.057Z,1006
2022-07-25T06:15:02.096Z,1006
2022-07-25T06:25:02.003Z,1006
2022-07-25T06:35:02.112Z,1006
2022-07-25T06:45:01.994Z,1006
2022-07-25T06:55:02.097Z,1006
2022-07-25T07:05:02.183Z,1006
2022-07-25T07:15:02.082Z,1007
2022-07-25T07:25:02.180Z,1007
2022-07-25T07:35:02.081Z,1007
2022-07-25T07:45:02.181Z,1007
2022-07-25T07:55:02.078Z,1007
2022-07-25T08:05:02.198Z,1008
2022-07-25T08:15:02.065Z,1008
2022-07-25T08:25:02.185Z,1008
2022-07-25T08:35:02.295Z,1008
2022-07-25T08:45:02.186Z,1008
2022-07-25T08:55:02.294Z,1008
2022-07-25T09:05:02.186Z,1009
2022-07-25T09:15:02.285Z,1009
2022-07-25T09:25:02.215Z,1009
2022-07-25T09:35:02.308Z,1009
2022-07-25T09:45:02.209Z,1009
2022-07-25T09:55:02.360Z,1009
2022-07-25T10:05:02.222Z,1009
2022-07-25T10:15:02.311Z,1010
2022-07-25T10:25:02.250Z,1010
2022-07-25T10:35:02.308Z,1010
2022-07-25T10:45:02.411Z,1010
2022-07-25T10:55:02.329Z,1010
2022-07-25T11:05:02.410Z,1010
2022-07-25T11:15:02.322Z,1010
2022-07-25T11:25:02.402Z,1010
2022-07-25T11:35:02.291Z,1011
2022-07-25T11:45:02.386Z,1011
2022-07-25T11:55:02.490Z,1011
2022-07-25T12:05:02.390Z,1011
2022-07-25T12:15:02.495Z,1012
2022-07-25T12:25:02.389Z,1012
2022-07-25T12:35:02.476Z,1012
2022-07-25T12:45:02.369Z,1012
2022-07-25T12:55:02.484Z,1012
2022-07-25T13:05:02.379Z,1012
2022-07-25T13:15:02.467Z,1012
2022-07-25T13:25:02.571Z,1012
2022-07-25T13:35:02.491Z,1012
2022-07-25T13:45:02.607Z,1013
2022-07-25T13:55:02.486Z,1013
2022-07-25T14:05:04.293Z,1013
2022-07-25T14:15:02.555Z,1013
2022-07-25T14:25:02.448Z,1013
2022-07-25T14:35:02.571Z,1014
2022-07-25T14:45:02.645Z,1014
2022-07-25T14:55:02.734Z,1015
2022-07-25T15:05:02.723Z,1015
2022-07-25T15:15:02.538Z,1015
2022-07-25T15:25:45.259Z,1015
2022-07-25T15:35:02.528Z,1015
2022-07-25T15:45:31.862Z,1015
2022-07-25T15:55:02.781Z,1015
2022-07-25T16:05:02.693Z,1015
2022-07-25T16:15:03.179Z,1015
2022-07-25T16:25:02.621Z,1015
2022-07-25T16:35:02.713Z,1016
2022-07-25T16:45:02.627Z,1016
2022-07-25T16:55:02.728Z,1016
2022-07-25T17:05:02.825Z,1016
2022-07-25T17:15:02.738Z,1016
2022-07-25T17:25:02.806Z,1016
2022-07-25T17:35:02.704Z,1016
2022-07-25T17:45:02.804Z,1015
2022-07-25T17:55:02.704Z,1015
2022-07-25T18:05:02.804Z,1016
2022-07-25T18:15:02.692Z,1016
2022-07-25T18:25:02.791Z,1015
2022-07-25T18:35:02.904Z,1015
2022-07-25T18:45:02.792Z,1015
2022-07-25T18:55:02.898Z,1015
2022-07-25T19:05:02.808Z,1016
2022-07-25T19:15:02.878Z,1016
2022-07-25T19:25:02.789Z,1016
2022-07-25T19:35:02.886Z,1016
2022-07-25T19:45:02.766Z,1016
2022-07-25T19:55:02.864Z,1016
2022-07-25T20:05:02.969Z,1016
2022-07-25T20:15:02.880Z,1016
2022-07-25T20:25:02.969Z,1016
2022-07-25T20:35:02.869Z,1017
2022-07-25T20:45:02.966Z,1017
2022-07-25T20:55:06.571Z,1017
2022-07-25T21:05:02.960Z,1017
2022-07-25T21:15:02.865Z,1017
2022-07-25T21:25:02.963Z,1017
2022-07-25T21:35:03.062Z,1017
2022-07-25T21:45:02.945Z,1017
2022-07-25T21:55:03.059Z,1017
2022-07-25T22:05:02.958Z,1018
2022-07-25T22:15:03.045Z,1018
2022-07-25T22:25:02.937Z,1018
2022-07-25T22:35:03.040Z,1018
2022-07-25T22:45:03.134Z,1018
2022-07-25T22:55:03.044Z,1018
2022-07-25T23:05:03.144Z,1018
2022-07-25T23:15:03.025Z,1018
2022-07-25T23:25:03.131Z,1018
2022-07-25T23:35:03.027Z,1018
2022-07-25T23:45:03.137Z,1019
2022-07-25T23:55:03.030Z,1019
